createdAt,value
2023-11-12T00:03:02.664Z,86.04
2023-11-12T00:06:07.478Z,85.78
2023-11-12T00:09:10.648Z,85.78
2023-11-12T00:12:13.317Z,86.13
2023-11-12T00:15:16.001Z,86.13
2023-11-12T00:18:18.647Z,86.40
2023-11-12T00:21:22.593Z,86.58
2023-11-12T00:24:25.213Z,86.46
2023-11-12T00:27:28.217Z,86.50
2023-11-12T00:30:30.784Z,86.28
2023-11-12T00:33:33.573Z,86.20
2023-11-12T00:36:39.686Z,86.29
2023-11-12T00:39:42.950Z,86.33
2023-11-12T00:42:45.749Z,86.26
2023-11-12T00:45:48.411Z,86.70
2023-11-12T00:48:51.031Z,86.47
2023-11-12T00:51:55.022Z,86.04
2023-11-12T00:54:57.594Z,86.12
2023-11-12T00:58:00.327Z,86.23
2023-11-12T01:01:03.195Z,86.23
2023-11-12T01:04:06.602Z,85.95
2023-11-12T01:07:10.544Z,85.72
2023-11-12T01:10:13.291Z,85.38
2023-11-12T01:13:16.333Z,84.82
2023-11-12T01:16:19.057Z,84.58
2023-11-12T01:19:21.720Z,85.29
2023-11-12T01:22:25.708Z,84.60
2023-11-12T01:25:28.408Z,85.02
2023-11-12T01:28:32.931Z,85.06
2023-11-12T01:31:35.606Z,84.84
2023-11-12T01:34:38.201Z,84.83
2023-11-12T01:37:42.104Z,84.84
2023-11-12T01:40:44.680Z,84.50
2023-11-12T01:43:47.277Z,85.01
2023-11-12T01:46:50.100Z,84.32
2023-11-12T01:49:53.598Z,84.99
2023-11-12T01:52:57.591Z,84.74
2023-11-12T01:56:00.226Z,84.71
2023-11-12T01:59:02.945Z,84.55
2023-11-12T02:02:06.403Z,84.71
2023-11-12T02:05:09.601Z,84.96
2023-11-12T02:08:13.943Z,84.84
2023-11-12T02:11:16.688Z,84.49
2023-11-12T02:14:21.786Z,84.69
2023-11-12T02:17:26.279Z,85.29
2023-11-12T02:20:29.011Z,85.37
2023-11-12T02:23:33.030Z,85.23
2023-11-12T02:26:38.266Z,85.28
2023-11-12T02:29:48.581Z,85.69
2023-11-12T02:32:51.271Z,85.68
2023-11-12T02:35:53.919Z,85.43
2023-11-12T02:38:57.574Z,85.62
2023-11-12T02:42:01.662Z,85.56
2023-11-12T02:45:05.189Z,85.65
2023-11-12T02:48:08.426Z,85.63
2023-11-12T02:51:11.215Z,85.44
2023-11-12T02:54:13.941Z,85.49
2023-11-12T02:57:22.102Z,85.38
2023-11-12T03:00:28.611Z,85.66
2023-11-12T03:03:31.575Z,85.73
2023-11-12T03:06:34.295Z,85.47
2023-11-12T03:09:37.024Z,86.01
2023-11-12T03:12:41.170Z,86.04
2023-11-12T03:15:43.814Z,86.24
2023-11-12T03:18:49.975Z,86.47
2023-11-12T03:21:53.979Z,86.98
2023-11-12T03:24:56.584Z,86.83
2023-11-12T03:28:01.014Z,87.33
2023-11-12T03:31:03.594Z,87.18
2023-11-12T03:34:06.380Z,88.00
2023-11-12T03:37:09.003Z,87.88
2023-11-12T03:40:12.969Z,87.85
2023-11-12T03:43:16.892Z,87.57
2023-11-12T03:46:19.529Z,87.89
2023-11-12T03:49:22.339Z,88.15
2023-11-12T03:52:25.001Z,87.89
2023-11-12T03:55:27.612Z,88.51
2023-11-12T03:58:32.133Z,88.71
2023-11-12T04:01:34.764Z,88.68
2023-11-12T04:04:37.637Z,88.79
2023-11-12T04:07:40.341Z,88.95
2023-11-12T04:10:43.085Z,89.06
2023-11-12T04:13:47.332Z,89.07
2023-11-12T04:16:49.916Z,89.52
2023-11-12T04:19:53.005Z,89.33
2023-11-12T04:22:56.011Z,89.39
2023-11-12T04:25:58.875Z,89.34
2023-11-12T04:29:07.815Z,89.24
2023-11-12T04:32:10.392Z,89.47
2023-11-12T04:35:13.124Z,89.43
2023-11-12T04:38:15.960Z,89.43
2023-11-12T04:41:18.574Z,89.54
2023-11-12T04:44:22.513Z,89.53
2023-11-12T04:47:25.670Z,89.44
2023-11-12T04:50:29.774Z,89.92
2023-11-12T04:53:32.659Z,89.73
2023-11-12T04:56:35.226Z,89.94
2023-11-12T04:59:41.980Z,89.79
2023-11-12T05:02:46.121Z,89.99
2023-11-12T05:05:50.117Z,90.03
2023-11-12T05:08:52.733Z,89.66
2023-11-12T05:11:55.502Z,90.21
2023-11-12T05:14:59.487Z,89.96
2023-11-12T05:18:06.840Z,90.31
2023-11-12T05:21:09.486Z,90.01
2023-11-12T05:24:12.127Z,90.48
2023-11-12T05:27:14.778Z,90.23
2023-11-12T05:30:18.768Z,90.39
2023-11-12T05:33:21.424Z,90.20
2023-11-12T05:36:24.075Z,90.58
2023-11-12T05:39:26.867Z,90.44
2023-11-12T05:42:29.541Z,90.37
2023-11-12T05:45:33.518Z,90.18
2023-11-12T05:48:36.138Z,90.09
2023-11-12T05:51:38.782Z,89.75
2023-11-12T05:54:41.447Z,89.69
2023-11-12T05:57:44.136Z,90.27
2023-11-12T06:00:48.234Z,90.29
2023-11-12T06:03:50.990Z,89.81
2023-11-12T06:06:53.668Z,89.91
2023-11-12T06:09:56.901Z,90.37
2023-11-12T06:12:59.600Z,90.02
2023-11-12T06:16:03.542Z,90.06
2023-11-12T06:19:06.565Z,90.13
2023-11-12T06:22:09.228Z,90.08
2023-11-12T06:25:12.939Z,89.73
2023-11-12T06:28:17.567Z,90.31
2023-11-12T06:31:22.350Z,90.13
2023-11-12T06:34:24.918Z,89.84
2023-11-12T06:37:27.765Z,90.22
2023-11-12T06:40:30.337Z,89.75
2023-11-12T06:43:32.903Z,89.52
2023-11-12T06:46:36.845Z,90.13
2023-11-12T06:49:39.439Z,89.69
2023-11-12T06:52:42.054Z,90.07
2023-11-12T06:55:44.742Z,89.51
2023-11-12T06:58:49.470Z,90.09
2023-11-12T07:01:53.500Z,89.95
2023-11-12T07:04:56.271Z,90.12
2023-11-12T07:07:59.026Z,89.79
2023-11-12T07:11:01.629Z,89.91
2023-11-12T07:14:04.584Z,90.09
2023-11-12T07:17:08.613Z,89.50
2023-11-12T07:20:12.515Z,89.56
2023-11-12T07:23:15.128Z,89.96
2023-11-12T07:26:17.762Z,90.33
2023-11-12T07:29:20.391Z,90.10
2023-11-12T07:32:24.388Z,90.11
2023-11-12T07:35:27.465Z,90.24
2023-11-12T07:38:30.036Z,90.18
2023-11-12T07:41:34.304Z,90.32
2023-11-12T07:44:37.570Z,89.80
2023-11-12T07:47:41.583Z,90.16
2023-11-12T07:50:44.211Z,89.92
2023-11-12T07:53:47.017Z,89.92
2023-11-12T07:56:49.606Z,90.54
2023-11-12T07:59:52.309Z,90.23
2023-11-12T08:02:56.374Z,90.39
2023-11-12T08:05:59.017Z,90.29
2023-11-12T08:09:01.885Z,90.84
2023-11-12T08:12:05.119Z,91.07
2023-11-12T08:15:08.999Z,90.80
2023-11-12T08:18:12.969Z,91.14
2023-11-12T08:21:15.651Z,91.81
2023-11-12T08:24:18.426Z,92.20
2023-11-12T08:27:21.067Z,92.33
2023-11-12T08:30:24.470Z,92.49
2023-11-12T08:33:28.525Z,92.80
2023-11-12T08:36:31.254Z,92.11
2023-11-12T08:39:33.891Z,91.27
2023-11-12T08:42:36.509Z,90.68
2023-11-12T08:45:39.160Z,90.32
2023-11-12T08:48:44.293Z,89.73
2023-11-12T08:51:47.014Z,89.51
2023-11-12T08:54:50.228Z,89.57
2023-11-12T08:57:52.925Z,89.56
2023-11-12T09:00:55.590Z,89.60
2023-11-12T09:03:59.684Z,89.40
2023-11-12T09:07:02.347Z,89.77
2023-11-12T09:10:05.734Z,89.49
2023-11-12T09:13:08.327Z,89.77
2023-11-12T09:16:12.027Z,89.68
2023-11-12T09:19:16.058Z,89.53
2023-11-12T09:22:18.666Z,89.41
2023-11-12T09:25:21.294Z,89.29
2023-11-12T09:28:23.925Z,88.71
2023-11-12T09:31:27.096Z,88.74
2023-11-12T09:34:31.713Z,88.30
2023-11-12T09:37:34.282Z,88.35
2023-11-12T09:40:37.012Z,87.88
2023-11-12T09:43:39.643Z,88.32
2023-11-12T09:46:42.314Z,87.35
2023-11-12T09:49:46.249Z,87.25
2023-11-12T09:52:49.076Z,86.89
2023-11-12T09:55:53.060Z,85.68
2023-11-12T09:58:55.924Z,85.24
2023-11-12T10:01:58.575Z,84.65
2023-11-12T10:05:05.705Z,85.10
2023-11-12T10:08:08.361Z,85.81
2023-11-12T10:11:18.398Z,85.05
2023-11-12T10:14:24.107Z,84.63
2023-11-12T10:17:26.743Z,84.03
2023-11-12T10:20:31.963Z,83.67
2023-11-12T10:23:34.572Z,83.29
2023-11-12T10:26:37.750Z,82.57
2023-11-12T10:29:41.125Z,82.21
2023-11-12T10:32:43.760Z,82.16
2023-11-12T10:35:48.250Z,81.83
2023-11-12T10:38:51.018Z,82.44
2023-11-12T10:41:53.651Z,81.40
2023-11-12T10:44:58.014Z,81.26
2023-11-12T10:48:00.905Z,79.96
2023-11-12T10:51:06.641Z,80.09
2023-11-12T10:54:09.430Z,80.76
2023-11-12T10:57:12.382Z,79.79
2023-11-12T11:00:16.967Z,79.70
2023-11-12T11:03:19.623Z,79.70
2023-11-12T11:06:23.800Z,80.15
2023-11-12T11:09:26.398Z,79.16
2023-11-12T11:12:29.221Z,79.01
2023-11-12T11:15:44.206Z,79.29
2023-11-12T11:18:53.144Z,79.26
2023-11-12T11:22:24.881Z,78.72
2023-11-12T11:25:27.684Z,79.24
2023-11-12T11:28:35.506Z,79.57
2023-11-12T11:31:38.817Z,79.73
2023-11-12T11:34:41.955Z,80.67
2023-11-12T11:38:11.257Z,81.04
2023-11-12T11:41:14.057Z,81.24
2023-11-12T11:44:45.593Z,81.32
2023-11-12T11:48:06.432Z,81.79
2023-11-12T11:51:48.649Z,82.00
2023-11-12T11:54:56.932Z,81.87
2023-11-12T11:58:01.602Z,82.11
2023-11-12T12:01:05.051Z,81.91
2023-11-12T12:04:07.883Z,81.22
2023-11-12T12:07:10.553Z,81.32
2023-11-12T12:10:27.616Z,81.45
2023-11-12T12:13:31.487Z,81.77
2023-11-12T12:16:34.614Z,82.30
2023-11-12T12:19:37.392Z,82.37
2023-11-12T12:22:40.034Z,82.66
2023-11-12T12:25:53.540Z,82.92
2023-11-12T12:28:56.179Z,83.08
2023-11-12T12:31:59.734Z,83.19
2023-11-12T12:35:02.405Z,83.29
2023-11-12T12:38:07.296Z,83.64
2023-11-12T12:41:11.209Z,84.08
2023-11-12T12:44:21.150Z,84.43
2023-11-12T12:47:31.744Z,84.67
2023-11-12T12:50:34.738Z,84.60
2023-11-12T12:53:38.000Z,84.95
2023-11-12T12:56:41.987Z,84.82
2023-11-12T12:59:44.674Z,84.94
2023-11-12T13:02:49.021Z,85.80
2023-11-12T13:05:52.002Z,85.51
2023-11-12T13:08:55.186Z,85.80
2023-11-12T13:11:59.211Z,86.11
2023-11-12T13:15:01.863Z,86.34
2023-11-12T13:18:04.768Z,86.23
2023-11-12T13:21:07.562Z,86.15
2023-11-12T13:24:11.522Z,86.18
2023-11-12T13:27:15.535Z,86.18
2023-11-12T13:30:18.436Z,85.75
2023-11-12T13:33:21.028Z,85.67
2023-11-12T13:36:25.799Z,85.49
2023-11-12T13:39:30.840Z,85.85
2023-11-12T13:42:36.754Z,86.18
2023-11-12T13:45:39.715Z,86.85
2023-11-12T13:48:42.821Z,86.05
2023-11-12T13:51:47.397Z,86.52
2023-11-12T13:54:50.895Z,87.11
2023-11-12T13:57:56.674Z,86.76
2023-11-12T14:00:59.377Z,86.95
2023-11-12T14:04:02.402Z,87.34
2023-11-12T14:07:06.952Z,86.95
2023-11-12T14:10:10.628Z,86.65
2023-11-12T14:13:15.686Z,87.21
2023-11-12T14:16:18.833Z,87.63
2023-11-12T14:19:21.491Z,87.13
2023-11-12T14:22:24.108Z,87.45
2023-11-12T14:25:26.891Z,87.53
2023-11-12T14:28:32.409Z,87.69
2023-11-12T14:31:35.446Z,87.99
2023-11-12T14:34:39.561Z,88.29
2023-11-12T14:37:42.536Z,87.92
2023-11-12T14:40:45.160Z,88.51
2023-11-12T14:43:49.366Z,88.40
2023-11-12T14:46:52.055Z,88.44
2023-11-12T14:49:54.677Z,88.87
2023-11-12T14:52:59.151Z,88.63
2023-11-12T14:56:02.087Z,89.28
2023-11-12T14:59:07.092Z,89.35
2023-11-12T15:02:13.853Z,89.17
2023-11-12T15:05:16.993Z,89.67
2023-11-12T15:08:19.566Z,89.69
2023-11-12T15:11:22.155Z,89.77
2023-11-12T15:14:26.129Z,89.54
2023-11-12T15:17:30.302Z,89.59
2023-11-12T15:20:36.108Z,90.08
2023-11-12T15:23:38.689Z,90.30
2023-11-12T15:26:42.511Z,90.72
2023-11-12T15:29:46.842Z,90.26
2023-11-12T15:32:50.108Z,90.72
2023-11-12T15:35:54.064Z,90.52
2023-11-12T15:38:57.290Z,90.79
2023-11-12T15:41:59.900Z,90.42
2023-11-12T15:45:07.011Z,90.35
2023-11-12T15:48:09.647Z,90.62
2023-11-12T15:51:14.868Z,91.23
2023-11-12T15:54:17.490Z,91.39
2023-11-12T15:57:20.096Z,90.82
2023-11-12T16:00:25.219Z,91.05
2023-11-12T16:03:30.697Z,90.92
2023-11-12T16:06:33.463Z,91.13
2023-11-12T16:09:36.149Z,91.43
2023-11-12T16:12:39.387Z,91.63
2023-11-12T16:15:43.503Z,91.65
2023-11-12T16:18:47.337Z,91.82
2023-11-12T16:21:50.053Z,91.88
2023-11-12T16:24:53.042Z,91.99
2023-11-12T16:27:56.525Z,91.97
2023-11-12T16:31:03.039Z,92.11
2023-11-12T16:34:06.206Z,92.60
2023-11-12T16:37:10.276Z,92.70
2023-11-12T16:40:15.853Z,92.60
2023-11-12T16:43:19.567Z,93.32
2023-11-12T16:46:23.552Z,92.96
2023-11-12T16:49:27.277Z,93.53
2023-11-12T16:52:29.951Z,93.79
2023-11-12T16:55:32.520Z,93.20
2023-11-12T16:58:35.164Z,94.06
2023-11-12T17:01:45.299Z,93.84
2023-11-12T17:04:48.605Z,93.44
2023-11-12T17:07:51.548Z,94.00
2023-11-12T17:10:54.218Z,94.30
2023-11-12T17:13:57.647Z,93.96
2023-11-12T17:17:01.620Z,94.48
2023-11-12T17:20:04.876Z,94.19
2023-11-12T17:23:08.678Z,94.34
2023-11-12T17:26:11.368Z,93.91
2023-11-12T17:29:14.023Z,94.37
2023-11-12T17:32:18.431Z,94.15
2023-11-12T17:35:21.021Z,94.19
2023-11-12T17:38:28.215Z,94.31
2023-11-12T17:41:30.848Z,93.69
2023-11-12T17:44:35.286Z,93.73
2023-11-12T17:47:39.479Z,93.73
2023-11-12T17:50:42.390Z,93.59
2023-11-12T17:53:44.973Z,93.83
2023-11-12T17:56:48.904Z,93.52
2023-11-12T17:59:52.014Z,93.87
2023-11-12T18:02:56.442Z,93.93
2023-11-12T18:05:59.190Z,93.73
2023-11-12T18:09:01.938Z,93.46
2023-11-12T18:12:04.910Z,93.35
2023-11-12T18:15:13.854Z,93.29
2023-11-12T18:18:22.238Z,92.81
2023-11-12T18:21:25.126Z,93.04
2023-11-12T18:24:27.699Z,92.58
2023-11-12T18:27:30.319Z,93.01
2023-11-12T18:30:32.958Z,92.50
2023-11-12T18:33:37.104Z,92.52
2023-11-12T18:36:40.774Z,92.83
2023-11-12T18:39:44.111Z,92.61
2023-11-12T18:42:46.819Z,92.64
2023-11-12T18:45:49.799Z,92.69
2023-11-12T18:48:55.489Z,92.48
2023-11-12T18:51:58.148Z,92.08
2023-11-12T18:55:00.791Z,92.33
2023-11-12T18:58:03.432Z,92.70
2023-11-12T19:01:06.284Z,92.45
2023-11-12T19:04:10.370Z,92.02
2023-11-12T19:07:15.854Z,91.97
2023-11-12T19:10:23.447Z,92.24
2023-11-12T19:13:26.175Z,91.50
2023-11-12T19:16:29.225Z,91.87
2023-11-12T19:19:34.534Z,91.39
2023-11-12T19:22:37.111Z,91.99
2023-11-12T19:25:40.671Z,91.40
2023-11-12T19:28:43.306Z,91.38
2023-11-12T19:31:46.050Z,91.42
2023-11-12T19:34:50.742Z,91.27
2023-11-12T19:37:53.384Z,91.74
2023-11-12T19:40:56.007Z,92.15
2023-11-12T19:43:58.640Z,92.08
2023-11-12T19:47:01.621Z,92.13
2023-11-12T19:50:07.811Z,92.23
2023-11-12T19:53:14.141Z,91.95
2023-11-12T19:56:18.276Z,91.84
2023-11-12T19:59:20.883Z,91.80
2023-11-12T20:02:23.574Z,91.83
2023-11-12T20:05:27.661Z,91.47
2023-11-12T20:08:30.281Z,91.84
2023-11-12T20:11:32.957Z,91.69
2023-11-12T20:14:37.765Z,91.46
2023-11-12T20:17:40.597Z,91.38
2023-11-12T20:20:44.533Z,91.26
2023-11-12T20:23:53.711Z,91.10
2023-11-12T20:26:57.540Z,90.89
2023-11-12T20:30:00.259Z,91.12
2023-11-12T20:33:03.018Z,90.92
2023-11-12T20:36:11.349Z,90.84
2023-11-12T20:39:16.891Z,91.20
2023-11-12T20:42:20.601Z,91.36
2023-11-12T20:45:23.254Z,91.47
2023-11-12T20:48:26.325Z,90.94
2023-11-12T20:51:30.317Z,90.86
2023-11-12T20:54:33.546Z,90.91
2023-11-12T20:57:36.759Z,91.16
2023-11-12T21:00:40.176Z,90.62
2023-11-12T21:03:43.646Z,91.04
2023-11-12T21:06:48.463Z,90.92
2023-11-12T21:09:52.420Z,90.61
2023-11-12T21:12:55.099Z,90.85
2023-11-12T21:15:58.320Z,90.66
2023-11-12T21:19:03.284Z,90.91
2023-11-12T21:22:07.490Z,90.49
2023-11-12T21:25:10.986Z,90.76
2023-11-12T21:28:13.755Z,90.79
2023-11-12T21:31:16.562Z,90.97
2023-11-12T21:34:19.310Z,90.63
2023-11-12T21:37:23.266Z,90.55
2023-11-12T21:40:25.981Z,90.45
2023-11-12T21:43:28.569Z,90.62
2023-11-12T21:46:31.211Z,90.38
2023-11-12T21:49:33.850Z,90.54
2023-11-12T21:52:37.824Z,90.45
2023-11-12T21:55:40.417Z,90.65
2023-11-12T21:58:43.031Z,90.67
2023-11-12T22:01:45.642Z,90.69
2023-11-12T22:04:51.149Z,90.55
2023-11-12T22:07:55.111Z,90.30
2023-11-12T22:10:57.675Z,90.55
2023-11-12T22:14:00.242Z,90.84
2023-11-12T22:17:03.245Z,90.80
2023-11-12T22:20:07.155Z,91.11
2023-11-12T22:23:12.572Z,90.97
2023-11-12T22:26:15.246Z,90.64
2023-11-12T22:29:18.871Z,90.58
2023-11-12T22:32:22.223Z,90.65
2023-11-12T22:35:24.924Z,90.70
2023-11-12T22:38:28.909Z,91.06
2023-11-12T22:41:31.492Z,91.05
2023-11-12T22:44:34.120Z,91.19
2023-11-12T22:47:36.781Z,91.11
2023-11-12T22:50:41.900Z,91.28
2023-11-12T22:53:45.862Z,91.26
2023-11-12T22:56:49.406Z,91.13
2023-11-12T22:59:52.209Z,91.55
2023-11-12T23:02:55.088Z,91.27
2023-11-12T23:05:57.765Z,91.15
2023-11-12T23:09:07.441Z,91.22
2023-11-12T23:12:11.430Z,91.24
2023-11-12T23:15:14.285Z,91.12
2023-11-12T23:18:18.692Z,91.40
2023-11-12T23:21:21.374Z,91.65
2023-11-12T23:24:25.368Z,91.34
2023-11-12T23:27:28.036Z,91.40
2023-11-12T23:30:31.699Z,91.54
2023-11-12T23:33:34.290Z,91.66
2023-11-12T23:36:36.919Z,91.72
2023-11-12T23:39:43.651Z,91.54
2023-11-12T23:42:46.593Z,91.88
2023-11-12T23:45:49.262Z,91.77
2023-11-12T23:48:51.927Z,91.66
2023-11-12T23:51:54.627Z,91.98
2023-11-12T23:54:58.599Z,91.51
2023-11-12T23:58:01.725Z,91.97
